createdAt,value
2022-10-29T00:01:25.358Z,38.03
2022-10-29T00:06:19.038Z,44.47
2022-10-29T00:08:45.903Z,39.50
2022-10-29T00:11:18.436Z,34.22
2022-10-29T00:13:46.111Z,38.55
2022-10-29T00:16:18.845Z,39.13
2022-10-29T00:18:45.881Z,38.58
2022-10-29T00:21:18.390Z,37.17
2022-10-29T00:23:48.427Z,35.33
2022-10-29T00:26:16.109Z,35.30
2022-10-29T00:28:43.142Z,39.22
2022-10-29T00:31:15.673Z,36.03
2022-10-29T00:33:47.719Z,36.33
2022-10-29T00:36:17.087Z,33.13
2022-10-29T00:38:53.855Z,35.85
2022-10-29T00:41:23.380Z,39.05
2022-10-29T00:43:52.506Z,32.75
2022-10-29T00:46:30.624Z,36.65
2022-10-29T00:49:01.044Z,30.30
2022-10-29T00:51:28.847Z,33.65
2022-10-29T00:54:05.184Z,39.25
2022-10-29T00:56:35.562Z,38.22
2022-10-29T00:59:03.138Z,39.30
2022-10-29T01:01:32.247Z,35.42
2022-10-29T01:04:00.242Z,34.78
2022-10-29T01:06:28.589Z,36.28
2022-10-29T01:08:55.226Z,35.43
2022-10-29T01:11:57.322Z,37.85
2022-10-29T01:14:54.389Z,36.00
2022-10-29T01:17:33.051Z,43.15
2022-10-29T01:20:47.853Z,36.45
2022-10-29T01:23:17.405Z,46.15
2022-10-29T01:26:11.270Z,40.28
2022-10-29T01:29:02.482Z,38.92
2022-10-29T01:31:31.655Z,36.63
2022-10-29T01:34:20.039Z,40.60
2022-10-29T01:37:18.363Z,37.03
2022-10-29T01:39:50.102Z,40.87
2022-10-29T01:42:54.004Z,35.20
2022-10-29T01:45:28.178Z,29.67
2022-10-29T01:48:07.286Z,26.95
2022-10-29T01:50:34.281Z,42.35
2022-10-29T01:53:01.089Z,39.53
2022-10-29T01:55:35.926Z,49.53
2022-10-29T01:58:04.151Z,47.50
2022-10-29T02:00:40.895Z,49.50
2022-10-29T02:03:12.981Z,55.78
2022-10-29T02:05:51.473Z,53.28
2022-10-29T02:08:23.346Z,54.45
2022-10-29T02:10:54.317Z,47.83
2022-10-29T02:13:24.562Z,48.47
2022-10-29T02:15:56.868Z,50.00
2022-10-29T02:18:23.624Z,53.13
2022-10-29T02:20:50.787Z,53.83
2022-10-29T02:23:17.521Z,52.22
2022-10-29T02:25:46.611Z,52.03
2022-10-29T02:28:15.617Z,52.50
2022-10-29T02:30:42.369Z,53.20
2022-10-29T02:33:09.079Z,50.50
2022-10-29T02:35:38.127Z,52.38
2022-10-29T02:38:04.799Z,56.25
2022-10-29T02:40:31.449Z,57.72
2022-10-29T02:43:02.988Z,61.78
2022-10-29T02:45:29.769Z,60.05
2022-10-29T02:47:56.602Z,67.15
2022-10-29T02:50:25.921Z,66.88
2022-10-29T02:52:52.648Z,64.07
2022-10-29T02:55:22.034Z,63.22
2022-10-29T02:57:48.786Z,57.92
2022-10-29T03:00:15.765Z,55.30
2022-10-29T03:02:44.735Z,56.22
2022-10-29T03:05:13.605Z,57.05
2022-10-29T03:07:42.530Z,53.60
2022-10-29T03:10:11.717Z,58.22
2022-10-29T03:12:40.957Z,56.33
2022-10-29T03:15:12.627Z,57.08
2022-10-29T03:20:06.318Z,52.75
2022-10-29T03:22:35.258Z,52.05
2022-10-29T03:25:06.772Z,51.60
2022-10-29T03:27:35.845Z,52.42
2022-10-29T03:30:05.235Z,53.53
2022-10-29T03:32:34.400Z,54.88
2022-10-29T03:35:03.495Z,51.40
2022-10-29T03:37:30.413Z,53.03
2022-10-29T03:45:01.703Z,50.55
2022-10-29T03:47:29.079Z,50.13
2022-10-29T03:49:55.830Z,50.83
2022-10-29T03:52:22.639Z,56.13
2022-10-29T03:54:49.464Z,56.13
2022-10-29T03:59:52.562Z,53.78
2022-10-29T04:02:19.820Z,56.33
2022-10-29T04:04:46.636Z,49.55
2022-10-29T04:07:13.346Z,54.60
2022-10-29T04:09:42.255Z,53.10
2022-10-29T04:12:09.542Z,52.53
2022-10-29T04:14:38.974Z,48.88
2022-10-29T04:17:12.038Z,49.80
2022-10-29T04:30:28.159Z,51.13
2022-10-29T04:32:59.237Z,43.50
2022-10-29T04:35:29.620Z,44.85
2022-10-29T04:37:58.976Z,46.38
2022-10-29T04:40:25.726Z,48.50
2022-10-29T04:42:52.637Z,42.13
2022-10-29T04:45:23.992Z,42.92
2022-10-29T04:48:04.132Z,45.83
2022-10-29T04:50:34.205Z,40.53
2022-10-29T04:53:04.920Z,52.67
2022-10-29T04:55:37.083Z,43.97
2022-10-29T04:58:09.939Z,45.95
2022-10-29T05:00:38.941Z,47.83
2022-10-29T05:03:05.804Z,45.25
2022-10-29T05:05:32.564Z,43.50
2022-10-29T05:10:36.173Z,45.53
2022-10-29T05:13:07.115Z,40.97
2022-10-29T05:15:36.820Z,47.35
2022-10-29T05:18:09.368Z,46.63
2022-10-29T05:20:36.337Z,41.35
2022-10-29T05:23:07.793Z,39.50
2022-10-29T05:25:38.463Z,39.30
2022-10-29T05:28:09.314Z,35.63
2022-10-29T05:30:36.432Z,37.80
2022-10-29T05:33:08.808Z,37.53
2022-10-29T05:35:38.430Z,41.00
2022-10-29T05:38:09.250Z,32.33
2022-10-29T05:40:36.004Z,37.42
2022-10-29T05:43:02.692Z,38.63
2022-10-29T05:45:29.770Z,33.83
2022-10-29T05:48:02.974Z,31.60
2022-10-29T05:50:32.645Z,33.92
2022-10-29T05:53:04.324Z,36.67
2022-10-29T05:55:32.665Z,32.97
2022-10-29T05:58:06.140Z,34.08
2022-10-29T06:00:35.557Z,32.88
2022-10-29T06:05:29.555Z,31.70
2022-10-29T06:08:00.199Z,32.50
2022-10-29T06:10:28.829Z,30.30
2022-10-29T06:12:55.487Z,28.38
2022-10-29T06:15:23.093Z,31.02
2022-10-29T06:17:50.145Z,33.97
2022-10-29T06:20:19.820Z,26.30
2022-10-29T06:22:57.118Z,32.97
2022-10-29T06:25:27.597Z,33.17
2022-10-29T06:28:07.521Z,28.00
2022-10-29T06:30:37.022Z,32.38
2022-10-29T06:33:04.754Z,36.33
2022-10-29T06:35:31.857Z,39.38
2022-10-29T06:38:09.266Z,40.75
2022-10-29T06:40:43.818Z,40.38
2022-10-29T06:43:12.799Z,46.40
2022-10-29T06:45:42.020Z,47.67
2022-10-29T06:48:14.607Z,43.90
2022-10-29T06:50:44.437Z,53.53
2022-10-29T06:53:14.918Z,49.33
2022-10-29T06:55:41.723Z,44.53
2022-10-29T06:58:14.879Z,48.95
2022-10-29T07:00:46.946Z,43.28
2022-10-29T07:03:17.509Z,37.50
2022-10-29T07:05:47.336Z,40.67
2022-10-29T07:08:18.692Z,35.67
2022-10-29T07:10:54.354Z,35.70
2022-10-29T07:13:36.568Z,42.85
2022-10-29T07:16:03.339Z,33.13
2022-10-29T07:18:34.657Z,35.17
2022-10-29T07:21:05.185Z,36.33
2022-10-29T07:23:34.498Z,32.35
2022-10-29T07:29:37.519Z,32.22
2022-10-29T07:32:30.414Z,34.05
2022-10-29T07:35:17.619Z,33.92
2022-10-29T07:37:44.322Z,34.70
2022-10-29T07:40:18.645Z,31.45
2022-10-29T07:42:51.599Z,31.33
2022-10-29T07:45:20.797Z,36.70
2022-10-29T07:48:03.284Z,34.10
2022-10-29T07:50:34.597Z,32.85
2022-10-29T07:53:07.034Z,30.42
2022-10-29T07:55:35.947Z,30.45
2022-10-29T07:58:05.414Z,30.42
2022-10-29T08:00:37.979Z,32.65
2022-10-29T08:03:05.792Z,30.35
2022-10-29T08:05:56.331Z,30.02
2022-10-29T08:08:23.544Z,33.33
2022-10-29T08:10:50.275Z,33.00
2022-10-29T08:13:19.237Z,35.22
2022-10-29T08:16:17.991Z,36.67
2022-10-29T08:19:10.414Z,35.88
2022-10-29T08:22:02.556Z,29.83
2022-10-29T08:26:47.836Z,39.22
2022-10-29T08:28:30.410Z,41.22
2022-10-29T08:35:05.797Z,40.33
2022-10-29T08:44:56.069Z,47.65
2022-10-29T08:47:33.441Z,41.83
2022-10-29T08:50:14.562Z,40.70
2022-10-29T08:52:53.319Z,43.08
2022-10-29T08:55:36.718Z,43.28
2022-10-29T08:58:40.429Z,47.42
2022-10-29T09:01:11.575Z,49.28
2022-10-29T09:03:45.900Z,52.17
2022-10-29T09:06:17.756Z,52.05
2022-10-29T09:08:59.462Z,45.97
2022-10-29T09:11:35.912Z,44.80
2022-10-29T09:14:17.266Z,49.85
2022-10-29T09:16:47.806Z,41.13
2022-10-29T09:19:52.969Z,46.92
2022-10-29T09:22:25.342Z,44.40
2022-10-29T09:25:12.223Z,46.70
2022-10-29T09:28:02.610Z,40.95
2022-10-29T09:30:33.546Z,37.95
2022-10-29T09:33:05.152Z,42.65
2022-10-29T09:35:39.332Z,38.38
2022-10-29T09:38:36.836Z,39.50
2022-10-29T09:41:15.768Z,43.90
2022-10-29T09:43:47.795Z,41.15
2022-10-29T09:46:46.698Z,42.45
2022-10-29T09:49:44.869Z,46.60
2022-10-29T09:52:21.809Z,42.45
2022-10-29T09:54:57.564Z,48.08
2022-10-29T09:57:29.593Z,44.67
2022-10-29T09:59:59.094Z,41.42
2022-10-29T10:02:39.006Z,42.55
2022-10-29T10:05:18.558Z,41.70
2022-10-29T10:08:04.434Z,42.25
2022-10-29T10:10:31.908Z,42.92
2022-10-29T10:13:10.744Z,42.40
2022-10-29T10:15:55.517Z,42.15
2022-10-29T10:18:33.855Z,46.28
2022-10-29T10:21:00.619Z,42.60
2022-10-29T10:23:34.331Z,44.75
2022-10-29T10:26:05.294Z,41.08
2022-10-29T10:28:34.760Z,42.72
2022-10-29T10:33:35.442Z,43.72
2022-10-29T10:36:14.440Z,42.95
2022-10-29T10:38:50.340Z,39.13
2022-10-29T10:41:31.203Z,42.78
2022-10-29T10:44:05.257Z,44.22
2022-10-29T10:46:40.376Z,44.75
2022-10-29T10:49:15.170Z,41.78
2022-10-29T10:51:52.183Z,43.88
2022-10-29T10:54:34.319Z,42.20
2022-10-29T10:57:28.415Z,45.85
2022-10-29T11:00:06.546Z,50.15
2022-10-29T11:03:11.869Z,44.85
2022-10-29T11:05:46.541Z,45.97
2022-10-29T11:08:39.558Z,46.03
2022-10-29T11:11:25.028Z,48.83
2022-10-29T11:13:55.306Z,45.58
2022-10-29T11:16:41.119Z,42.22
2022-10-29T11:19:31.303Z,46.38
2022-10-29T11:22:13.265Z,43.17
2022-10-29T11:24:47.512Z,44.45
2022-10-29T11:27:45.326Z,44.88
2022-10-29T11:30:16.466Z,43.00
2022-10-29T11:33:17.394Z,41.05
2022-10-29T11:36:01.581Z,42.83
2022-10-29T11:38:42.801Z,43.90
2022-10-29T11:41:47.726Z,39.25
2022-10-29T11:44:29.126Z,40.58
2022-10-29T11:47:05.579Z,41.58
2022-10-29T11:50:06.846Z,39.75
2022-10-29T11:55:33.910Z,38.97
2022-10-29T11:58:22.263Z,37.28
2022-10-29T12:00:54.427Z,37.33
2022-10-29T12:04:01.508Z,34.97
2022-10-29T12:06:55.002Z,35.92
2022-10-29T12:09:24.173Z,36.80
2022-10-29T12:12:09.800Z,36.05
2022-10-29T12:14:48.154Z,34.30
2022-10-29T12:17:23.184Z,34.10
2022-10-29T12:20:17.593Z,31.38
2022-10-29T12:23:12.003Z,32.42
2022-10-29T12:26:12.506Z,30.10
2022-10-29T12:29:00.422Z,29.42
2022-10-29T12:31:30.967Z,29.20
2022-10-29T12:34:33.796Z,26.20
2022-10-29T12:37:22.621Z,31.40
2022-10-29T12:39:59.861Z,29.75
2022-10-29T12:42:30.496Z,31.08
2022-10-29T12:45:21.594Z,31.35
2022-10-29T12:48:00.561Z,35.47
2022-10-29T12:50:45.668Z,32.60
2022-10-29T12:53:24.112Z,30.35
2022-10-29T12:55:54.205Z,32.97
2022-10-29T12:58:45.197Z,32.30
2022-10-29T13:01:43.837Z,32.25
2022-10-29T13:04:25.955Z,32.25
2022-10-29T13:09:48.509Z,34.13
2022-10-29T13:13:06.463Z,32.28
2022-10-29T13:15:43.924Z,34.63
2022-10-29T13:18:22.951Z,38.13
2022-10-29T13:20:52.326Z,34.08
2022-10-29T13:23:22.133Z,33.92
2022-10-29T13:25:56.593Z,32.60
2022-10-29T13:28:25.654Z,33.78
2022-10-29T13:31:12.522Z,32.10
2022-10-29T13:36:16.348Z,36.95
2022-10-29T13:39:05.114Z,33.42
2022-10-29T13:41:42.889Z,35.97
2022-10-29T13:44:26.246Z,34.88
2022-10-29T13:47:10.598Z,32.03
2022-10-29T13:49:37.580Z,32.25
2022-10-29T13:52:06.804Z,31.27
2022-10-29T13:54:47.007Z,34.08
2022-10-29T13:57:25.240Z,36.55
2022-10-29T14:00:16.213Z,34.85
2022-10-29T14:02:45.192Z,39.30
2022-10-29T14:05:14.787Z,35.08
2022-10-29T14:07:59.270Z,38.55
2022-10-29T14:11:01.002Z,32.55
2022-10-29T14:13:57.008Z,32.55
2022-10-29T14:20:35.863Z,33.13
2022-10-29T14:23:11.208Z,34.55
2022-10-29T14:25:42.870Z,31.65
2022-10-29T14:28:37.166Z,33.58
2022-10-29T14:31:12.326Z,33.75
2022-10-29T14:33:59.153Z,32.13
2022-10-29T14:36:43.791Z,32.38
2022-10-29T14:39:28.823Z,30.05
2022-10-29T14:42:11.823Z,33.90
2022-10-29T14:44:39.554Z,34.08
2022-10-29T14:47:13.966Z,31.17
2022-10-29T14:49:45.906Z,30.58
2022-10-29T14:52:28.220Z,31.02
2022-10-29T14:55:04.976Z,34.92
2022-10-29T14:57:35.877Z,29.30
2022-10-29T15:00:05.497Z,33.60
2022-10-29T15:02:39.922Z,30.85
2022-10-29T15:05:45.895Z,29.08
2022-10-29T15:08:19.031Z,31.58
2022-10-29T15:10:53.990Z,31.83
2022-10-29T15:13:27.900Z,30.75
2022-10-29T15:15:59.309Z,27.50
2022-10-29T15:18:31.494Z,25.92
2022-10-29T15:21:00.607Z,26.00
2022-10-29T15:23:35.502Z,27.02
2022-10-29T15:26:07.573Z,30.85
2022-10-29T15:28:44.449Z,27.50
2022-10-29T15:31:24.366Z,28.05
2022-10-29T15:33:57.310Z,26.15
2022-10-29T15:36:26.614Z,27.75
2022-10-29T15:39:17.678Z,27.42
2022-10-29T15:41:48.000Z,30.17
2022-10-29T15:44:35.477Z,26.75
2022-10-29T15:47:17.150Z,27.30
2022-10-29T15:49:46.471Z,25.80
2022-10-29T15:52:16.710Z,25.98
2022-10-29T15:54:49.095Z,24.85
2022-10-29T15:57:18.542Z,26.27
2022-10-29T15:59:55.800Z,30.95
2022-10-29T16:02:25.401Z,28.48
2022-10-29T16:04:54.352Z,26.95
2022-10-29T16:07:21.049Z,27.38
2022-10-29T16:09:50.601Z,28.20
2022-10-29T16:12:20.213Z,25.90
2022-10-29T16:14:52.265Z,29.15
2022-10-29T16:17:30.989Z,29.95
2022-10-29T16:20:00.476Z,27.77
2022-10-29T16:22:30.173Z,30.38
2022-10-29T16:24:59.659Z,27.00
2022-10-29T16:27:28.929Z,26.60
2022-10-29T16:29:56.704Z,31.02
2022-10-29T16:32:26.774Z,29.20
2022-10-29T16:34:59.199Z,28.90
2022-10-29T16:37:43.746Z,30.10
2022-10-29T16:40:14.402Z,30.38
2022-10-29T16:42:44.819Z,28.38
2022-10-29T16:45:18.778Z,29.35
2022-10-29T16:47:45.781Z,31.30
2022-10-29T16:50:24.088Z,32.95
2022-10-29T16:53:00.715Z,29.87
2022-10-29T16:55:35.964Z,29.35
2022-10-29T16:58:02.743Z,28.77
2022-10-29T17:01:05.418Z,29.73
2022-10-29T17:03:35.426Z,28.75
2022-10-29T17:06:04.554Z,27.23
2022-10-29T17:08:37.036Z,31.67
2022-10-29T17:11:06.131Z,31.70
2022-10-29T17:13:34.551Z,32.38
2022-10-29T17:16:04.584Z,29.10
2022-10-29T17:18:32.486Z,29.65
2022-10-29T17:21:00.392Z,32.50
2022-10-29T17:23:34.692Z,29.23
2022-10-29T17:26:01.968Z,26.70
2022-10-29T17:28:29.085Z,28.92
2022-10-29T17:30:57.971Z,30.00
2022-10-29T17:33:30.293Z,33.95
2022-10-29T17:36:04.327Z,29.70
2022-10-29T17:38:31.231Z,32.40
2022-10-29T17:41:04.323Z,28.85
2022-10-29T17:43:33.384Z,30.85
2022-10-29T17:46:06.493Z,30.95
2022-10-29T17:48:40.375Z,30.38
2022-10-29T17:51:10.846Z,30.70
2022-10-29T17:53:38.936Z,31.70
2022-10-29T17:56:06.323Z,30.30
2022-10-29T17:58:32.975Z,34.35
2022-10-29T18:01:04.834Z,32.05
2022-10-29T18:03:33.299Z,32.63
2022-10-29T18:06:01.955Z,34.33
2022-10-29T18:08:32.075Z,31.70
2022-10-29T18:11:07.531Z,30.20
2022-10-29T18:13:39.308Z,29.80
2022-10-29T18:16:06.321Z,30.23
2022-10-29T18:18:54.396Z,28.88
2022-10-29T18:21:30.661Z,28.77
2022-10-29T18:23:57.511Z,30.80
2022-10-29T18:26:34.756Z,31.98
2022-10-29T18:29:12.048Z,31.02
2022-10-29T18:31:42.197Z,31.50
2022-10-29T18:34:09.569Z,32.53
2022-10-29T18:36:36.265Z,32.42
2022-10-29T18:39:04.870Z,32.03
2022-10-29T18:41:31.818Z,29.20
2022-10-29T18:44:06.136Z,29.05
2022-10-29T18:46:33.995Z,28.80
2022-10-29T18:49:01.064Z,27.77
2022-10-29T18:51:34.043Z,28.55
2022-10-29T18:54:00.781Z,27.60
2022-10-29T18:56:31.144Z,32.63
2022-10-29T18:59:01.132Z,29.60
2022-10-29T19:01:32.174Z,36.38
2022-10-29T19:04:05.282Z,33.83
2022-10-29T19:06:34.240Z,38.00
2022-10-29T19:09:05.127Z,39.95
2022-10-29T19:11:31.953Z,33.08
2022-10-29T19:14:00.637Z,36.70
2022-10-29T19:16:47.129Z,35.33
2022-10-29T19:19:21.279Z,33.03
2022-10-29T19:21:53.510Z,31.85
2022-10-29T19:24:24.657Z,33.67
2022-10-29T19:26:51.401Z,37.60
2022-10-29T19:29:20.623Z,32.10
2022-10-29T19:32:00.881Z,29.55
2022-10-29T19:34:56.998Z,31.05
2022-10-29T19:37:26.489Z,31.42
2022-10-29T19:39:56.492Z,30.05
2022-10-29T19:42:23.172Z,30.38
2022-10-29T19:44:53.590Z,29.10
2022-10-29T19:47:26.383Z,30.73
2022-10-29T19:49:53.101Z,30.08
2022-10-29T19:52:19.858Z,30.85
2022-10-29T19:54:53.765Z,32.55
2022-10-29T19:57:20.479Z,30.25
2022-10-29T19:59:49.555Z,28.67
2022-10-29T20:02:16.508Z,31.00
2022-10-29T20:04:43.934Z,32.13
2022-10-29T20:07:13.314Z,30.35
2022-10-29T20:12:10.340Z,32.30
2022-10-29T20:14:38.457Z,32.70
2022-10-29T20:17:09.911Z,29.35
2022-10-29T20:19:36.649Z,29.40
2022-10-29T20:22:03.480Z,31.55
2022-10-29T20:24:32.245Z,28.50
2022-10-29T20:26:58.955Z,29.95
2022-10-29T20:29:27.827Z,29.13
2022-10-29T20:31:56.662Z,31.50
2022-10-29T20:34:28.280Z,34.22
2022-10-29T20:36:55.165Z,32.63
2022-10-29T20:39:32.407Z,27.58
2022-10-29T20:42:02.303Z,30.95
2022-10-29T20:44:29.207Z,30.77
2022-10-29T20:46:58.863Z,30.92
2022-10-29T20:49:30.011Z,32.83
2022-10-29T20:51:56.751Z,32.03
2022-10-29T20:54:23.446Z,33.20
2022-10-29T20:56:53.081Z,34.25
2022-10-29T20:59:19.903Z,34.05
2022-10-29T21:01:49.936Z,33.33
2022-10-29T21:04:20.909Z,36.75
2022-10-29T21:06:49.936Z,36.08
2022-10-29T21:09:19.153Z,33.03
2022-10-29T21:11:45.838Z,32.58
2022-10-29T21:14:12.633Z,30.00
2022-10-29T21:16:41.414Z,29.60
2022-10-29T21:19:08.201Z,29.50
2022-10-29T21:21:38.034Z,31.02
2022-10-29T21:24:07.382Z,29.60
2022-10-29T21:26:36.283Z,29.42
2022-10-29T21:29:03.216Z,32.75
2022-10-29T21:31:43.084Z,32.40
2022-10-29T21:34:13.032Z,31.95
2022-10-29T21:36:39.685Z,34.22
2022-10-29T21:39:11.151Z,31.98
2022-10-29T21:41:37.921Z,32.53
2022-10-29T21:44:04.869Z,31.60
2022-10-29T21:46:34.100Z,35.47
2022-10-29T21:49:03.438Z,31.60
2022-10-29T21:51:30.159Z,30.10
2022-10-29T21:53:59.011Z,38.38
2022-10-29T21:59:24.741Z,33.65
2022-10-29T22:01:51.452Z,32.65
2022-10-29T22:04:18.267Z,33.40
2022-10-29T22:06:45.089Z,30.95
2022-10-29T22:09:11.938Z,36.45
2022-10-29T22:11:38.607Z,32.30
2022-10-29T22:14:07.988Z,33.00
2022-10-29T22:16:34.679Z,34.22
2022-10-29T22:19:03.922Z,31.55
2022-10-29T22:21:33.402Z,35.38
2022-10-29T22:24:02.779Z,32.67
2022-10-29T22:29:01.119Z,33.33
2022-10-29T22:31:27.850Z,33.10
2022-10-29T22:33:54.693Z,32.63
2022-10-29T22:36:23.507Z,35.67
2022-10-29T22:38:54.438Z,31.85
2022-10-29T22:41:23.731Z,35.22
2022-10-29T22:43:55.468Z,34.92
2022-10-29T22:46:22.770Z,32.83
2022-10-29T22:48:52.057Z,35.67
2022-10-29T22:53:51.494Z,32.65
2022-10-29T22:56:19.391Z,34.28
2022-10-29T22:58:46.351Z,37.28
2022-10-29T23:01:17.545Z,39.35
2022-10-29T23:03:50.363Z,36.78
2022-10-29T23:06:19.569Z,35.42
2022-10-29T23:11:19.729Z,31.73
2022-10-29T23:13:47.579Z,33.30
2022-10-29T23:16:15.857Z,33.42
2022-10-29T23:18:42.562Z,37.45
2022-10-29T23:21:09.538Z,34.47
2022-10-29T23:23:40.696Z,30.08
2022-10-29T23:26:11.425Z,29.98
2022-10-29T23:28:39.605Z,29.55
2022-10-29T23:31:10.265Z,28.23
2022-10-29T23:33:39.565Z,34.55
2022-10-29T23:36:09.351Z,33.70
2022-10-29T23:38:38.179Z,37.70
2022-10-29T23:41:05.180Z,34.95
2022-10-29T23:43:38.816Z,36.25
2022-10-29T23:46:07.649Z,34.38
2022-10-29T23:48:37.422Z,38.58
2022-10-29T23:51:08.832Z,33.25
2022-10-29T23:53:35.994Z,38.08
2022-10-29T23:56:03.090Z,36.42
2022-10-29T23:58:29.738Z,35.08
